sensor_id;sensor_type;location;lat;lon;timestamp;temperature;humidity
21648;DHT22;10985;54.182;7.890;2022-08-11T00:01:17;19.30;99.90
21648;DHT22;10985;54.182;7.890;2022-08-11T00:03:46;19.30;99.90
21648;DHT22;10985;54.182;7.890;2022-08-11T00:06:14;19.20;99.90
21648;DHT22;10985;54.182;7.890;2022-08-11T00:08:41;19.20;99.90
21648;DHT22;10985;54.182;7.890;2022-08-11T00:11:08;19.30;99.90
21648;DHT22;10985;54.182;7.890;2022-08-11T00:13:37;19.20;99.90
21648;DHT22;10985;54.182;7.890;2022-08-11T00:16:09;19.20;99.90
21648;DHT22;10985;54.182;7.890;2022-08-11T00:18:41;19.20;99.90
21648;DHT22;10985;54.182;7.890;2022-08-11T00:21:08;19.20;99.90
21648;DHT22;10985;54.182;7.890;2022-08-11T00:23:41;19.20;99.90
21648;DHT22;10985;54.182;7.890;2022-08-11T00:26:07;19.20;99.90
21648;DHT22;10985;54.182;7.890;2022-08-11T00:28:35;19.20;99.90
21648;DHT22;10985;54.182;7.890;2022-08-11T00:31:03;19.20;99.90
21648;DHT22;10985;54.182;7.890;2022-08-11T00:33:39;19.10;99.90
21648;DHT22;10985;54.182;7.890;2022-08-11T00:36:05;19.10;99.90
21648;DHT22;10985;54.182;7.890;2022-08-11T00:38:35;19.10;99.90
21648;DHT22;10985;54.182;7.890;2022-08-11T00:41:28;19.10;99.90
21648;DHT22;10985;54.182;7.890;2022-08-11T00:52:43;19.10;99.90
21648;DHT22;10985;54.182;7.890;2022-08-11T00:55:41;19.10;99.90
21648;DHT22;10985;54.182;7.890;2022-08-11T00:58:26;19.10;99.90
21648;DHT22;10985;54.182;7.890;2022-08-11T01:01:19;19.10;99.90
21648;DHT22;10985;54.182;7.890;2022-08-11T01:11:55;19.10;99.90
21648;DHT22;10985;54.182;7.890;2022-08-11T01:25:53;19.00;99.90
21648;DHT22;10985;54.182;7.890;2022-08-11T01:31:42;19.00;99.90
21648;DHT22;10985;54.182;7.890;2022-08-11T01:46:00;18.90;99.90
21648;DHT22;10985;54.182;7.890;2022-08-11T01:48:48;18.90;99.90
21648;DHT22;10985;54.182;7.890;2022-08-11T01:51:45;18.90;99.90
21648;DHT22;10985;54.182;7.890;2022-08-11T01:54:48;18.90;99.90
21648;DHT22;10985;54.182;7.890;2022-08-11T01:57:41;18.90;99.90
21648;DHT22;10985;54.182;7.890;2022-08-11T02:00:13;18.90;99.90
21648;DHT22;10985;54.182;7.890;2022-08-11T02:08:26;18.80;99.90
21648;DHT22;10985;54.182;7.890;2022-08-11T02:17:11;18.80;99.90
21648;DHT22;10985;54.182;7.890;2022-08-11T02:19:48;18.80;99.90
21648;DHT22;10985;54.182;7.890;2022-08-11T02:22:56;18.80;99.90
21648;DHT22;10985;54.182;7.890;2022-08-11T02:25:55;18.70;99.90
21648;DHT22;10985;54.182;7.890;2022-08-11T02:31:38;18.70;99.90
21648;DHT22;10985;54.182;7.890;2022-08-11T02:34:30;18.70;99.90
21648;DHT22;10985;54.182;7.890;2022-08-11T02:36:59;18.70;99.90
21648;DHT22;10985;54.182;7.890;2022-08-11T02:39:45;18.70;99.90
21648;DHT22;10985;54.182;7.890;2022-08-11T02:42:28;18.60;99.90
21648;DHT22;10985;54.182;7.890;2022-08-11T02:45:33;18.70;99.90
21648;DHT22;10985;54.182;7.890;2022-08-11T02:48:39;18.60;99.90
21648;DHT22;10985;54.182;7.890;2022-08-11T02:54:41;18.60;99.90
21648;DHT22;10985;54.182;7.890;2022-08-11T02:57:16;18.60;99.90
21648;DHT22;10985;54.182;7.890;2022-08-11T02:59:58;18.60;99.90
21648;DHT22;10985;54.182;7.890;2022-08-11T03:14:24;18.60;99.90
21648;DHT22;10985;54.182;7.890;2022-08-11T03:17:29;18.60;99.90
21648;DHT22;10985;54.182;7.890;2022-08-11T03:20:24;18.70;99.90
21648;DHT22;10985;54.182;7.890;2022-08-11T03:26:07;18.70;99.90
21648;DHT22;10985;54.182;7.890;2022-08-11T03:29:05;18.70;99.90
21648;DHT22;10985;54.182;7.890;2022-08-11T03:34:43;18.60;99.90
21648;DHT22;10985;54.182;7.890;2022-08-11T03:43:23;18.60;99.90
21648;DHT22;10985;54.182;7.890;2022-08-11T03:46:13;18.60;99.90
21648;DHT22;10985;54.182;7.890;2022-08-11T03:48:48;18.60;99.90
21648;DHT22;10985;54.182;7.890;2022-08-11T03:51:28;18.60;99.90
21648;DHT22;10985;54.182;7.890;2022-08-11T03:54:10;18.60;99.90
21648;DHT22;10985;54.182;7.890;2022-08-11T04:03:11;18.60;99.90
21648;DHT22;10985;54.182;7.890;2022-08-11T04:11:15;18.60;99.90
21648;DHT22;10985;54.182;7.890;2022-08-11T04:13:59;18.60;99.90
21648;DHT22;10985;54.182;7.890;2022-08-11T04:17:07;18.60;99.90
21648;DHT22;10985;54.182;7.890;2022-08-11T04:22:47;18.60;99.90
21648;DHT22;10985;54.182;7.890;2022-08-11T04:28:19;18.60;99.90
21648;DHT22;10985;54.182;7.890;2022-08-11T04:31:17;18.50;99.90
21648;DHT22;10985;54.182;7.890;2022-08-11T04:36:56;18.60;99.90
21648;DHT22;10985;54.182;7.890;2022-08-11T04:40:28;18.60;99.90
21648;DHT22;10985;54.182;7.890;2022-08-11T04:48:56;18.60;99.90
21648;DHT22;10985;54.182;7.890;2022-08-11T04:52:06;18.60;99.90
21648;DHT22;10985;54.182;7.890;2022-08-11T05:01:36;18.60;99.90
21648;DHT22;10985;54.182;7.890;2022-08-11T05:11:00;18.70;99.90
21648;DHT22;10985;54.182;7.890;2022-08-11T05:13:37;18.70;99.90
21648;DHT22;10985;54.182;7.890;2022-08-11T05:16:40;18.70;99.90
21648;DHT22;10985;54.182;7.890;2022-08-11T05:19:24;18.70;99.90
21648;DHT22;10985;54.182;7.890;2022-08-11T05:22:11;18.70;99.90
21648;DHT22;10985;54.182;7.890;2022-08-11T05:25:06;18.80;99.90
21648;DHT22;10985;54.182;7.890;2022-08-11T05:30:56;18.80;99.90
21648;DHT22;10985;54.182;7.890;2022-08-11T05:33:51;18.80;99.90
21648;DHT22;10985;54.182;7.890;2022-08-11T05:36:50;18.80;99.90
21648;DHT22;10985;54.182;7.890;2022-08-11T05:39:20;18.80;99.90
21648;DHT22;10985;54.182;7.890;2022-08-11T05:42:07;18.80;99.90
21648;DHT22;10985;54.182;7.890;2022-08-11T05:44:56;18.90;99.90
21648;DHT22;10985;54.182;7.890;2022-08-11T05:47:41;18.90;99.90
21648;DHT22;10985;54.182;7.890;2022-08-11T05:50:26;18.90;99.90
21648;DHT22;10985;54.182;7.890;2022-08-11T05:53:12;18.90;99.90
21648;DHT22;10985;54.182;7.890;2022-08-11T05:55:58;19.00;99.90
21648;DHT22;10985;54.182;7.890;2022-08-11T05:58:45;19.00;99.90
21648;DHT22;10985;54.182;7.890;2022-08-11T06:01:20;19.00;99.90
21648;DHT22;10985;54.182;7.890;2022-08-11T06:03:49;19.10;99.90
21648;DHT22;10985;54.182;7.890;2022-08-11T06:06:34;19.10;99.90
21648;DHT22;10985;54.182;7.890;2022-08-11T06:09:01;19.10;99.90
21648;DHT22;10985;54.182;7.890;2022-08-11T06:11:27;19.10;99.90
21648;DHT22;10985;54.182;7.890;2022-08-11T06:13:54;19.10;99.90
21648;DHT22;10985;54.182;7.890;2022-08-11T06:16:24;19.10;99.90
21648;DHT22;10985;54.182;7.890;2022-08-11T06:18:52;19.20;99.90
21648;DHT22;10985;54.182;7.890;2022-08-11T06:21:19;19.30;99.90
21648;DHT22;10985;54.182;7.890;2022-08-11T06:23:45;19.30;99.90
21648;DHT22;10985;54.182;7.890;2022-08-11T06:26:12;19.30;99.90
21648;DHT22;10985;54.182;7.890;2022-08-11T06:28:41;19.40;99.90
21648;DHT22;10985;54.182;7.890;2022-08-11T06:31:16;19.40;99.90
21648;DHT22;10985;54.182;7.890;2022-08-11T06:44:47;19.60;99.90
21648;DHT22;10985;54.182;7.890;2022-08-11T06:47:16;19.70;99.90
21648;DHT22;10985;54.182;7.890;2022-08-11T06:49:46;19.80;99.90
21648;DHT22;10985;54.182;7.890;2022-08-11T06:52:33;19.80;99.90
21648;DHT22;10985;54.182;7.890;2022-08-11T06:55:10;19.90;99.90
21648;DHT22;10985;54.182;7.890;2022-08-11T06:57:38;20.00;99.90
21648;DHT22;10985;54.182;7.890;2022-08-11T07:00:25;20.10;99.90
21648;DHT22;10985;54.182;7.890;2022-08-11T07:03:15;20.30;99.90
21648;DHT22;10985;54.182;7.890;2022-08-11T07:05:51;20.40;99.90
21648;DHT22;10985;54.182;7.890;2022-08-11T07:08:59;20.50;99.90
21648;DHT22;10985;54.182;7.890;2022-08-11T07:12:02;20.70;99.90
21648;DHT22;10985;54.182;7.890;2022-08-11T07:14:55;20.90;99.90
21648;DHT22;10985;54.182;7.890;2022-08-11T07:17:45;21.10;99.90
21648;DHT22;10985;54.182;7.890;2022-08-11T07:20:14;21.30;99.90
21648;DHT22;10985;54.182;7.890;2022-08-11T07:23:02;21.50;99.90
21648;DHT22;10985;54.182;7.890;2022-08-11T07:25:51;21.80;99.90
21648;DHT22;10985;54.182;7.890;2022-08-11T07:28:41;22.00;99.90
21648;DHT22;10985;54.182;7.890;2022-08-11T07:31:34;22.30;99.90
21648;DHT22;10985;54.182;7.890;2022-08-11T07:34:12;22.60;99.90
21648;DHT22;10985;54.182;7.890;2022-08-11T07:36:41;22.90;99.90
21648;DHT22;10985;54.182;7.890;2022-08-11T07:39:23;23.20;99.90
21648;DHT22;10985;54.182;7.890;2022-08-11T07:41:52;23.50;99.90
21648;DHT22;10985;54.182;7.890;2022-08-11T07:44:18;23.70;99.90
21648;DHT22;10985;54.182;7.890;2022-08-11T07:46:47;23.90;99.90
21648;DHT22;10985;54.182;7.890;2022-08-11T07:49:35;24.20;99.90
21648;DHT22;10985;54.182;7.890;2022-08-11T07:52:21;24.40;99.90
21648;DHT22;10985;54.182;7.890;2022-08-11T07:57:24;24.80;99.90
21648;DHT22;10985;54.182;7.890;2022-08-11T08:00:10;24.90;99.90
21648;DHT22;10985;54.182;7.890;2022-08-11T08:02:54;25.10;99.90
21648;DHT22;10985;54.182;7.890;2022-08-11T08:05:39;25.30;99.90
21648;DHT22;10985;54.182;7.890;2022-08-11T08:08:24;25.60;99.90
21648;DHT22;10985;54.182;7.890;2022-08-11T08:11:10;26.00;99.90
21648;DHT22;10985;54.182;7.890;2022-08-11T08:13:54;26.20;99.90
21648;DHT22;10985;54.182;7.890;2022-08-11T08:16:39;26.60;99.90
21648;DHT22;10985;54.182;7.890;2022-08-11T08:19:24;27.10;99.90
21648;DHT22;10985;54.182;7.890;2022-08-11T08:21:50;27.70;99.90
21648;DHT22;10985;54.182;7.890;2022-08-11T08:24:18;28.10;99.90
21648;DHT22;10985;54.182;7.890;2022-08-11T08:26:47;28.50;99.90
21648;DHT22;10985;54.182;7.890;2022-08-11T08:29:36;28.90;99.90
21648;DHT22;10985;54.182;7.890;2022-08-11T08:32:20;29.30;99.90
21648;DHT22;10985;54.182;7.890;2022-08-11T08:34:48;29.60;99.90
21648;DHT22;10985;54.182;7.890;2022-08-11T08:37:18;30.00;99.90
21648;DHT22;10985;54.182;7.890;2022-08-11T08:39:45;30.30;99.90
21648;DHT22;10985;54.182;7.890;2022-08-11T08:42:12;30.40;99.90
21648;DHT22;10985;54.182;7.890;2022-08-11T08:44:44;30.60;99.90
21648;DHT22;10985;54.182;7.890;2022-08-11T08:47:14;30.90;99.90
21648;DHT22;10985;54.182;7.890;2022-08-11T08:49:45;31.10;99.90
21648;DHT22;10985;54.182;7.890;2022-08-11T08:52:15;31.60;99.90
21648;DHT22;10985;54.182;7.890;2022-08-11T08:54:43;32.00;99.90
21648;DHT22;10985;54.182;7.890;2022-08-11T08:57:10;32.40;99.90
21648;DHT22;10985;54.182;7.890;2022-08-11T08:59:41;32.80;99.90
21648;DHT22;10985;54.182;7.890;2022-08-11T09:02:08;33.20;99.90
21648;DHT22;10985;54.182;7.890;2022-08-11T09:04:38;33.50;99.90
21648;DHT22;10985;54.182;7.890;2022-08-11T09:07:13;33.70;99.90
21648;DHT22;10985;54.182;7.890;2022-08-11T09:09:51;34.00;99.90
21648;DHT22;10985;54.182;7.890;2022-08-11T09:12:19;34.20;99.90
21648;DHT22;10985;54.182;7.890;2022-08-11T09:14:47;34.40;99.90
21648;DHT22;10985;54.182;7.890;2022-08-11T09:17:42;34.70;99.90
21648;DHT22;10985;54.182;7.890;2022-08-11T09:20:25;34.70;99.90
21648;DHT22;10985;54.182;7.890;2022-08-11T09:22:56;34.80;99.90
21648;DHT22;10985;54.182;7.890;2022-08-11T09:25:41;34.70;99.90
21648;DHT22;10985;54.182;7.890;2022-08-11T09:28:27;34.60;99.90
21648;DHT22;10985;54.182;7.890;2022-08-11T09:30:56;34.40;99.90
21648;DHT22;10985;54.182;7.890;2022-08-11T09:33:23;34.30;99.90
21648;DHT22;10985;54.182;7.890;2022-08-11T09:35:50;34.10;99.90
21648;DHT22;10985;54.182;7.890;2022-08-11T09:38:18;34.00;99.90
21648;DHT22;10985;54.182;7.890;2022-08-11T09:41:04;34.00;99.90
21648;DHT22;10985;54.182;7.890;2022-08-11T09:43:32;33.90;99.90
21648;DHT22;10985;54.182;7.890;2022-08-11T09:46:23;33.90;99.90
21648;DHT22;10985;54.182;7.890;2022-08-11T09:48:52;33.90;99.90
21648;DHT22;10985;54.182;7.890;2022-08-11T09:51:21;34.00;99.90
21648;DHT22;10985;54.182;7.890;2022-08-11T09:53:48;34.10;99.90
21648;DHT22;10985;54.182;7.890;2022-08-11T09:56:16;34.20;99.90
21648;DHT22;10985;54.182;7.890;2022-08-11T09:59:02;34.10;99.90
21648;DHT22;10985;54.182;7.890;2022-08-11T10:01:35;34.10;99.90
21648;DHT22;10985;54.182;7.890;2022-08-11T10:04:15;34.20;99.90
21648;DHT22;10985;54.182;7.890;2022-08-11T10:06:43;34.30;99.90
21648;DHT22;10985;54.182;7.890;2022-08-11T10:10:00;34.30;99.90
21648;DHT22;10985;54.182;7.890;2022-08-11T10:12:34;34.50;99.90
21648;DHT22;10985;54.182;7.890;2022-08-11T10:15:07;34.60;99.90
21648;DHT22;10985;54.182;7.890;2022-08-11T10:18:12;34.80;99.90
21648;DHT22;10985;54.182;7.890;2022-08-11T10:21:03;35.00;99.90
21648;DHT22;10985;54.182;7.890;2022-08-11T10:23:32;35.20;99.90
21648;DHT22;10985;54.182;7.890;2022-08-11T10:26:19;35.40;99.90
21648;DHT22;10985;54.182;7.890;2022-08-11T10:29:04;35.60;99.90
21648;DHT22;10985;54.182;7.890;2022-08-11T10:31:54;35.90;99.90
21648;DHT22;10985;54.182;7.890;2022-08-11T10:34:50;36.20;99.60
21648;DHT22;10985;54.182;7.890;2022-08-11T10:37:19;36.40;99.10
21648;DHT22;10985;54.182;7.890;2022-08-11T10:39:47;36.50;99.10
21648;DHT22;10985;54.182;7.890;2022-08-11T10:42:14;37.00;98.50
21648;DHT22;10985;54.182;7.890;2022-08-11T10:44:59;37.50;98.10
21648;DHT22;10985;54.182;7.890;2022-08-11T10:47:26;37.90;97.60
21648;DHT22;10985;54.182;7.890;2022-08-11T10:50:11;38.20;96.80
21648;DHT22;10985;54.182;7.890;2022-08-11T10:52:58;38.40;96.50
21648;DHT22;10985;54.182;7.890;2022-08-11T10:55:44;38.40;95.80
21648;DHT22;10985;54.182;7.890;2022-08-11T10:58:29;38.20;95.80
21648;DHT22;10985;54.182;7.890;2022-08-11T11:03:53;38.20;95.60
21648;DHT22;10985;54.182;7.890;2022-08-11T11:09:07;38.30;95.40
21648;DHT22;10985;54.182;7.890;2022-08-11T11:11:37;38.50;95.20
21648;DHT22;10985;54.182;7.890;2022-08-11T11:14:29;38.70;94.70
21648;DHT22;10985;54.182;7.890;2022-08-11T11:17:14;39.10;94.40
21648;DHT22;10985;54.182;7.890;2022-08-11T11:19:50;39.40;93.80
21648;DHT22;10985;54.182;7.890;2022-08-11T11:22:19;39.40;93.60
21648;DHT22;10985;54.182;7.890;2022-08-11T11:25:21;39.40;93.40
21648;DHT22;10985;54.182;7.890;2022-08-11T11:33:59;40.10;92.50
21648;DHT22;10985;54.182;7.890;2022-08-11T11:39:21;40.60;91.10
21648;DHT22;10985;54.182;7.890;2022-08-11T11:41:48;40.70;90.80
21648;DHT22;10985;54.182;7.890;2022-08-11T11:44:16;40.60;90.90
21648;DHT22;10985;54.182;7.890;2022-08-11T11:46:43;40.70;90.80
21648;DHT22;10985;54.182;7.890;2022-08-11T11:49:10;40.60;90.90
21648;DHT22;10985;54.182;7.890;2022-08-11T11:51:36;40.40;91.20
21648;DHT22;10985;54.182;7.890;2022-08-11T11:54:03;40.30;91.20
21648;DHT22;10985;54.182;7.890;2022-08-11T11:56:30;40.30;90.90
21648;DHT22;10985;54.182;7.890;2022-08-11T11:58:56;40.20;91.10
21648;DHT22;10985;54.182;7.890;2022-08-11T12:01:42;40.10;90.90
21648;DHT22;10985;54.182;7.890;2022-08-11T12:04:10;40.10;90.80
21648;DHT22;10985;54.182;7.890;2022-08-11T12:06:36;39.90;90.80
21648;DHT22;10985;54.182;7.890;2022-08-11T12:09:03;39.70;91.00
21648;DHT22;10985;54.182;7.890;2022-08-11T12:11:30;39.50;91.20
21648;DHT22;10985;54.182;7.890;2022-08-11T12:14:17;39.60;91.00
21648;DHT22;10985;54.182;7.890;2022-08-11T12:16:45;39.40;91.10
21648;DHT22;10985;54.182;7.890;2022-08-11T12:19:17;39.30;91.10
21648;DHT22;10985;54.182;7.890;2022-08-11T12:21:43;39.20;91.50
21648;DHT22;10985;54.182;7.890;2022-08-11T12:24:29;39.00;91.40
21648;DHT22;10985;54.182;7.890;2022-08-11T12:27:13;38.80;91.40
21648;DHT22;10985;54.182;7.890;2022-08-11T12:29:57;38.70;91.70
21648;DHT22;10985;54.182;7.890;2022-08-11T12:32:29;38.60;91.80
21648;DHT22;10985;54.182;7.890;2022-08-11T12:34:55;38.40;91.70
21648;DHT22;10985;54.182;7.890;2022-08-11T12:37:38;38.30;91.70
21648;DHT22;10985;54.182;7.890;2022-08-11T12:40:08;38.30;91.80
21648;DHT22;10985;54.182;7.890;2022-08-11T12:42:54;38.30;91.70
21648;DHT22;10985;54.182;7.890;2022-08-11T12:45:42;38.10;91.60
21648;DHT22;10985;54.182;7.890;2022-08-11T12:48:12;37.90;91.90
21648;DHT22;10985;54.182;7.890;2022-08-11T12:51:03;37.70;92.00
21648;DHT22;10985;54.182;7.890;2022-08-11T12:54:05;37.60;92.00
21648;DHT22;10985;54.182;7.890;2022-08-11T12:56:37;37.50;92.00
21648;DHT22;10985;54.182;7.890;2022-08-11T12:59:23;37.30;92.30
21648;DHT22;10985;54.182;7.890;2022-08-11T13:02:14;37.20;92.40
21648;DHT22;10985;54.182;7.890;2022-08-11T13:05:03;37.00;92.40
21648;DHT22;10985;54.182;7.890;2022-08-11T13:07:30;36.70;92.70
21648;DHT22;10985;54.182;7.890;2022-08-11T13:09:57;36.50;92.90
21648;DHT22;10985;54.182;7.890;2022-08-11T13:12:26;36.20;93.10
21648;DHT22;10985;54.182;7.890;2022-08-11T13:15:14;35.90;93.40
21648;DHT22;10985;54.182;7.890;2022-08-11T13:17:40;35.50;94.00
21648;DHT22;10985;54.182;7.890;2022-08-11T13:20:08;35.20;94.10
21648;DHT22;10985;54.182;7.890;2022-08-11T13:22:35;35.00;94.60
21648;DHT22;10985;54.182;7.890;2022-08-11T13:25:03;34.70;94.90
21648;DHT22;10985;54.182;7.890;2022-08-11T13:27:29;34.40;95.20
21648;DHT22;10985;54.182;7.890;2022-08-11T13:29:55;34.10;95.80
21648;DHT22;10985;54.182;7.890;2022-08-11T13:32:41;33.80;96.40
21648;DHT22;10985;54.182;7.890;2022-08-11T13:35:08;33.40;96.00
21648;DHT22;10985;54.182;7.890;2022-08-11T13:37:36;33.20;96.10
21648;DHT22;10985;54.182;7.890;2022-08-11T13:40:02;32.90;96.50
21648;DHT22;10985;54.182;7.890;2022-08-11T13:42:29;32.50;96.80
21648;DHT22;10985;54.182;7.890;2022-08-11T13:44:55;32.20;97.00
21648;DHT22;10985;54.182;7.890;2022-08-11T13:47:22;32.00;97.30
21648;DHT22;10985;54.182;7.890;2022-08-11T13:49:49;31.70;97.90
21648;DHT22;10985;54.182;7.890;2022-08-11T13:52:16;31.40;98.50
21648;DHT22;10985;54.182;7.890;2022-08-11T13:54:45;31.10;98.90
21648;DHT22;10985;54.182;7.890;2022-08-11T13:57:13;30.90;99.30
21648;DHT22;10985;54.182;7.890;2022-08-11T13:59:45;30.60;99.60
21648;DHT22;10985;54.182;7.890;2022-08-11T14:02:14;30.40;99.80
21648;DHT22;10985;54.182;7.890;2022-08-11T14:05:03;30.10;99.90
21648;DHT22;10985;54.182;7.890;2022-08-11T14:07:34;29.90;99.90
21648;DHT22;10985;54.182;7.890;2022-08-11T14:10:03;29.70;99.90
21648;DHT22;10985;54.182;7.890;2022-08-11T14:12:30;29.40;99.90
21648;DHT22;10985;54.182;7.890;2022-08-11T14:15:22;29.20;99.90
21648;DHT22;10985;54.182;7.890;2022-08-11T14:18:02;28.90;99.90
21648;DHT22;10985;54.182;7.890;2022-08-11T14:20:31;28.70;99.90
21648;DHT22;10985;54.182;7.890;2022-08-11T14:23:19;28.50;99.90
21648;DHT22;10985;54.182;7.890;2022-08-11T14:25:46;28.30;99.90
21648;DHT22;10985;54.182;7.890;2022-08-11T14:28:33;28.20;99.90
21648;DHT22;10985;54.182;7.890;2022-08-11T14:31:00;28.10;99.90
21648;DHT22;10985;54.182;7.890;2022-08-11T14:33:27;28.00;99.90
21648;DHT22;10985;54.182;7.890;2022-08-11T14:35:52;27.90;99.90
21648;DHT22;10985;54.182;7.890;2022-08-11T14:38:19;27.80;99.90
21648;DHT22;10985;54.182;7.890;2022-08-11T14:40:46;27.70;99.90
21648;DHT22;10985;54.182;7.890;2022-08-11T14:43:30;27.60;99.90
21648;DHT22;10985;54.182;7.890;2022-08-11T14:46:17;27.50;99.90
21648;DHT22;10985;54.182;7.890;2022-08-11T14:49:11;27.40;99.90
21648;DHT22;10985;54.182;7.890;2022-08-11T14:51:38;27.40;99.90
21648;DHT22;10985;54.182;7.890;2022-08-11T14:54:05;27.30;99.90
21648;DHT22;10985;54.182;7.890;2022-08-11T14:56:50;27.20;99.90
21648;DHT22;10985;54.182;7.890;2022-08-11T14:59:16;27.10;99.90
21648;DHT22;10985;54.182;7.890;2022-08-11T15:01:42;27.00;99.90
21648;DHT22;10985;54.182;7.890;2022-08-11T15:04:26;27.00;99.90
21648;DHT22;10985;54.182;7.890;2022-08-11T15:06:52;27.00;99.90
21648;DHT22;10985;54.182;7.890;2022-08-11T15:09:18;26.90;99.90
21648;DHT22;10985;54.182;7.890;2022-08-11T15:11:44;26.80;99.90
21648;DHT22;10985;54.182;7.890;2022-08-11T15:14:28;26.70;99.90
21648;DHT22;10985;54.182;7.890;2022-08-11T15:17:14;26.60;99.90
21648;DHT22;10985;54.182;7.890;2022-08-11T15:19:42;26.60;99.90
21648;DHT22;10985;54.182;7.890;2022-08-11T15:22:28;26.60;99.90
21648;DHT22;10985;54.182;7.890;2022-08-11T15:25:12;26.50;99.90
21648;DHT22;10985;54.182;7.890;2022-08-11T15:27:39;26.40;99.90
21648;DHT22;10985;54.182;7.890;2022-08-11T15:30:26;26.40;99.90
21648;DHT22;10985;54.182;7.890;2022-08-11T15:33:11;26.40;99.90
21648;DHT22;10985;54.182;7.890;2022-08-11T15:36:00;26.30;99.90
21648;DHT22;10985;54.182;7.890;2022-08-11T15:38:53;26.30;99.90
21648;DHT22;10985;54.182;7.890;2022-08-11T15:41:20;26.30;99.90
21648;DHT22;10985;54.182;7.890;2022-08-11T15:44:09;26.20;99.90
21648;DHT22;10985;54.182;7.890;2022-08-11T15:46:57;26.20;99.90
21648;DHT22;10985;54.182;7.890;2022-08-11T15:49:31;26.20;99.90
21648;DHT22;10985;54.182;7.890;2022-08-11T15:52:06;26.20;99.90
21648;DHT22;10985;54.182;7.890;2022-08-11T15:54:34;26.10;99.90
21648;DHT22;10985;54.182;7.890;2022-08-11T15:57:03;26.10;99.90
21648;DHT22;10985;54.182;7.890;2022-08-11T15:59:31;26.00;99.90
21648;DHT22;10985;54.182;7.890;2022-08-11T16:02:19;26.00;99.90
21648;DHT22;10985;54.182;7.890;2022-08-11T16:05:02;26.00;99.90
21648;DHT22;10985;54.182;7.890;2022-08-11T16:07:31;26.00;99.90
21648;DHT22;10985;54.182;7.890;2022-08-11T16:10:03;26.00;99.90
21648;DHT22;10985;54.182;7.890;2022-08-11T16:12:35;25.90;99.90
21648;DHT22;10985;54.182;7.890;2022-08-11T16:15:04;25.90;99.90
21648;DHT22;10985;54.182;7.890;2022-08-11T16:17:58;25.90;99.90
21648;DHT22;10985;54.182;7.890;2022-08-11T16:20:27;25.90;99.90
21648;DHT22;10985;54.182;7.890;2022-08-11T16:22:58;25.80;99.90
21648;DHT22;10985;54.182;7.890;2022-08-11T16:25:25;25.80;99.90
21648;DHT22;10985;54.182;7.890;2022-08-11T16:27:56;25.70;99.90
21648;DHT22;10985;54.182;7.890;2022-08-11T16:30:38;25.80;99.90
21648;DHT22;10985;54.182;7.890;2022-08-11T16:33:04;25.70;99.90
21648;DHT22;10985;54.182;7.890;2022-08-11T16:35:35;25.70;99.90
21648;DHT22;10985;54.182;7.890;2022-08-11T16:38:23;25.70;99.90
21648;DHT22;10985;54.182;7.890;2022-08-11T16:41:08;25.70;99.90
21648;DHT22;10985;54.182;7.890;2022-08-11T16:43:40;25.70;99.90
21648;DHT22;10985;54.182;7.890;2022-08-11T16:46:25;25.60;99.90
21648;DHT22;10985;54.182;7.890;2022-08-11T16:49:20;25.60;99.90
21648;DHT22;10985;54.182;7.890;2022-08-11T16:51:49;25.60;99.90
21648;DHT22;10985;54.182;7.890;2022-08-11T16:54:14;25.60;99.90
21648;DHT22;10985;54.182;7.890;2022-08-11T16:56:51;25.60;99.90
21648;DHT22;10985;54.182;7.890;2022-08-11T16:59:30;25.60;99.90
21648;DHT22;10985;54.182;7.890;2022-08-11T17:02:11;25.50;99.90
21648;DHT22;10985;54.182;7.890;2022-08-11T17:05:04;25.50;99.90
21648;DHT22;10985;54.182;7.890;2022-08-11T17:07:50;25.50;99.90
21648;DHT22;10985;54.182;7.890;2022-08-11T17:10:40;25.50;99.90
21648;DHT22;10985;54.182;7.890;2022-08-11T17:13:34;25.40;99.90
21648;DHT22;10985;54.182;7.890;2022-08-11T17:16:03;25.30;99.90
21648;DHT22;10985;54.182;7.890;2022-08-11T17:18:39;25.30;99.90
21648;DHT22;10985;54.182;7.890;2022-08-11T17:21:28;25.30;99.90
21648;DHT22;10985;54.182;7.890;2022-08-11T17:24:02;25.20;99.90
21648;DHT22;10985;54.182;7.890;2022-08-11T17:26:34;25.10;99.90
21648;DHT22;10985;54.182;7.890;2022-08-11T17:29:42;25.10;99.90
21648;DHT22;10985;54.182;7.890;2022-08-11T17:32:12;25.00;99.90
21648;DHT22;10985;54.182;7.890;2022-08-11T17:35:02;25.00;99.90
21648;DHT22;10985;54.182;7.890;2022-08-11T17:37:48;25.00;99.90
21648;DHT22;10985;54.182;7.890;2022-08-11T17:40:19;24.80;99.90
21648;DHT22;10985;54.182;7.890;2022-08-11T17:42:51;24.80;99.90
21648;DHT22;10985;54.182;7.890;2022-08-11T17:45:38;24.70;99.90
21648;DHT22;10985;54.182;7.890;2022-08-11T17:48:24;24.70;99.90
21648;DHT22;10985;54.182;7.890;2022-08-11T17:51:13;24.60;99.90
21648;DHT22;10985;54.182;7.890;2022-08-11T17:53:59;24.60;99.90
21648;DHT22;10985;54.182;7.890;2022-08-11T17:56:48;24.50;99.90
21648;DHT22;10985;54.182;7.890;2022-08-11T17:59:33;24.50;99.90
21648;DHT22;10985;54.182;7.890;2022-08-11T18:02:36;24.40;99.90
21648;DHT22;10985;54.182;7.890;2022-08-11T18:05:23;24.40;99.90
21648;DHT22;10985;54.182;7.890;2022-08-11T18:07:51;24.30;99.90
21648;DHT22;10985;54.182;7.890;2022-08-11T18:10:36;24.20;99.90
21648;DHT22;10985;54.182;7.890;2022-08-11T18:13:23;24.20;99.90
21648;DHT22;10985;54.182;7.890;2022-08-11T18:16:08;24.10;99.90
21648;DHT22;10985;54.182;7.890;2022-08-11T18:18:53;24.00;99.90
21648;DHT22;10985;54.182;7.890;2022-08-11T18:21:39;24.00;99.90
21648;DHT22;10985;54.182;7.890;2022-08-11T18:24:26;23.90;99.90
21648;DHT22;10985;54.182;7.890;2022-08-11T18:27:15;23.90;99.90
21648;DHT22;10985;54.182;7.890;2022-08-11T18:30:02;23.80;99.90
21648;DHT22;10985;54.182;7.890;2022-08-11T18:32:47;23.80;99.90
21648;DHT22;10985;54.182;7.890;2022-08-11T18:35:34;23.70;99.90
21648;DHT22;10985;54.182;7.890;2022-08-11T18:38:19;23.60;99.90
21648;DHT22;10985;54.182;7.890;2022-08-11T18:41:06;23.50;99.90
21648;DHT22;10985;54.182;7.890;2022-08-11T18:43:53;23.40;99.90
21648;DHT22;10985;54.182;7.890;2022-08-11T18:46:41;23.30;99.90
21648;DHT22;10985;54.182;7.890;2022-08-11T18:49:33;23.30;99.90
21648;DHT22;10985;54.182;7.890;2022-08-11T18:52:18;23.20;99.90
21648;DHT22;10985;54.182;7.890;2022-08-11T18:55:07;23.20;99.90
21648;DHT22;10985;54.182;7.890;2022-08-11T18:57:53;23.10;99.90
21648;DHT22;10985;54.182;7.890;2022-08-11T19:00:39;23.10;99.90
21648;DHT22;10985;54.182;7.890;2022-08-11T19:03:26;23.00;99.90
21648;DHT22;10985;54.182;7.890;2022-08-11T19:06:12;22.90;99.90
21648;DHT22;10985;54.182;7.890;2022-08-11T19:09:00;22.90;99.90
21648;DHT22;10985;54.182;7.890;2022-08-11T19:11:47;22.80;99.90
21648;DHT22;10985;54.182;7.890;2022-08-11T19:14:32;22.80;99.90
21648;DHT22;10985;54.182;7.890;2022-08-11T19:17:19;22.70;99.90
21648;DHT22;10985;54.182;7.890;2022-08-11T19:20:06;22.70;99.90